KHUM/HUM METAR and TAF weather

Enter ICAO airport designator
Station Type Date Time Source
KHUM METAR 2019/08/25 03:35 UTC NOAA

KHUM 250335Z AUTO 00000KT 10SM SCT110 26/24 A2997 RMK AO2 T02550244


Station Type Date Time Source
KHUM Decoded METAR 2019/08/25 03:35 UTC NOAA

Station name not available
Aug 24, 2019 - 11:35 PM EDT / 2019.08.25 0335 UTC
Wind: Calm:0
Visibility: 10 mile(s):0
Sky conditions: partly cloudy
Temperature: 77.9 F (25.5 C)
Dew Point: 75.9 F (24.4 C)
Relative Humidity: 93%
Pressure (altimeter): 29.97 in. Hg (1014 hPa)
ob: KHUM 250335Z AUTO 00000KT 10SM SCT110 26/24 A2997 RMK AO2 T02550244
cycle: 3

Station Type Date Time Source
KHUM TAF 2019/08/24 18:45 UTC NOAA

TAF KHUM 241741Z 2418/2518 00000KT P6SM BKN018
TEMPO 2418/2421 VRB15G25KT 1SM TSRA BR BKN018CB
FM242100 18007KT P6SM SCT035 BKN090
TEMPO 2421/2424 4SM TSRA BKN025CB
FM250000 20005KT P6SM SCT025 OVC110
FM250600 00000KT P6SM VCTS SCT015CB BKN100
FM251200 00000KT P6SM -SHRA VCTS SCT025CB OVC060
FM251500 VRB04KT P6SM -SHRA VCTS SCT020CB OVC030

Example: see airport list